createdAt,value
2023-01-13T00:00:41.420Z,100780.91
2023-01-13T00:04:26.537Z,100790.44
2023-01-13T00:08:09.991Z,100790.46
2023-01-13T00:11:53.712Z,100785.63
2023-01-13T00:15:37.217Z,100785.98
2023-01-13T00:19:20.479Z,100792.05
2023-01-13T00:23:04.283Z,100798.43
2023-01-13T00:26:46.806Z,100806.02
2023-01-13T00:30:29.952Z,100814.34
2023-01-13T00:34:13.271Z,100814.90
2023-01-13T00:37:56.863Z,100818.89
2023-01-13T00:41:39.682Z,100822.89
2023-01-13T00:45:23.215Z,100832.95
2023-01-13T00:49:06.352Z,100839.04
2023-01-13T00:52:49.685Z,100837.34
2023-01-13T00:56:40.123Z,100840.10
2023-01-13T01:00:05.045Z,100840.25
2023-01-13T01:03:48.129Z,100835.95
2023-01-13T01:07:31.607Z,100833.87
2023-01-13T01:11:14.564Z,100830.62
2023-01-13T01:14:57.738Z,100830.29
2023-01-13T01:18:41.519Z,100830.66
2023-01-13T01:22:24.791Z,100826.86
2023-01-13T01:26:07.580Z,100829.09
2023-01-13T01:29:51.014Z,100832.36
2023-01-13T01:33:33.946Z,100828.55
2023-01-13T01:37:17.222Z,100821.46
2023-01-13T01:41:00.329Z,100818.02
2023-01-13T01:44:43.590Z,100814.55
2023-01-13T01:48:26.890Z,100812.41
2023-01-13T01:52:10.173Z,100814.11
2023-01-13T01:55:53.624Z,100822.22
2023-01-13T01:59:36.678Z,100824.64
2023-01-13T02:03:19.752Z,100822.55
2023-01-13T02:07:03.830Z,100817.36
2023-01-13T02:10:47.275Z,100813.55
2023-01-13T02:14:30.951Z,100807.84
2023-01-13T02:18:14.425Z,100804.02
2023-01-13T02:21:58.199Z,100804.73
2023-01-13T02:25:41.544Z,100811.29
2023-01-13T02:29:24.770Z,100809.21
2023-01-13T02:33:08.000Z,100808.02
2023-01-13T02:36:51.238Z,100805.93
2023-01-13T02:40:34.499Z,100803.30
2023-01-13T02:44:17.744Z,100801.23
2023-01-13T02:48:00.895Z,100799.13
2023-01-13T02:51:44.588Z,100801.17
2023-01-13T02:55:27.658Z,100801.49
2023-01-13T02:59:10.971Z,100799.77
2023-01-13T03:02:53.625Z,100797.16
2023-01-13T03:06:37.214Z,100799.56
2023-01-13T03:10:20.519Z,100799.06
2023-01-13T03:14:04.115Z,100798.02
2023-01-13T03:17:47.476Z,100796.32
2023-01-13T03:21:30.683Z,100797.52
2023-01-13T03:25:13.304Z,100794.92
2023-01-13T03:28:56.520Z,100786.46
2023-01-13T03:32:39.547Z,100789.23
2023-01-13T03:36:22.773Z,100787.51
2023-01-13T03:40:06.307Z,100785.08
2023-01-13T03:43:49.937Z,100786.14
2023-01-13T03:47:33.791Z,100785.80
2023-01-13T03:51:17.647Z,100788.39
2023-01-13T03:55:00.922Z,100786.83
2023-01-13T03:58:44.673Z,100780.96
2023-01-13T04:02:28.448Z,100780.95
2023-01-13T04:06:11.435Z,100782.01
2023-01-13T04:09:55.244Z,100781.20
2023-01-13T04:13:38.970Z,100774.15
2023-01-13T04:17:22.473Z,100765.52
2023-01-13T04:21:06.065Z,100760.02
2023-01-13T04:24:49.283Z,100752.96
2023-01-13T04:28:32.162Z,100741.62
2023-01-13T04:32:15.225Z,100737.55
2023-01-13T04:35:58.153Z,100743.82
2023-01-13T04:39:41.097Z,100744.52
2023-01-13T04:43:24.012Z,100739.20
2023-01-13T04:47:07.896Z,100739.59
2023-01-13T04:50:51.824Z,100740.48
2023-01-13T04:54:35.398Z,100731.70
2023-01-13T04:58:18.989Z,100730.48
2023-01-13T05:02:02.235Z,100734.30
2023-01-13T05:05:45.598Z,100737.79
2023-01-13T05:09:29.675Z,100744.20
2023-01-13T05:13:12.837Z,100748.02
2023-01-13T05:16:56.504Z,100754.59
2023-01-13T05:20:40.494Z,100755.10
2023-01-13T05:24:24.143Z,100754.25
2023-01-13T05:28:07.731Z,100754.09
2023-01-13T05:31:51.003Z,100754.79
2023-01-13T05:35:34.219Z,100754.55
2023-01-13T05:39:17.783Z,100757.13
2023-01-13T05:43:01.446Z,100755.08
2023-01-13T05:46:44.836Z,100759.91
2023-01-13T05:50:28.171Z,100763.38
2023-01-13T05:54:15.340Z,100763.23
2023-01-13T05:57:58.677Z,100762.52
2023-01-13T06:01:42.048Z,100766.31
2023-01-13T06:05:25.186Z,100764.24
2023-01-13T06:09:08.542Z,100767.67
2023-01-13T06:12:51.710Z,100771.10
2023-01-13T06:16:35.279Z,100776.61
2023-01-13T06:20:18.259Z,100784.36
2023-01-13T06:24:01.352Z,100783.50
2023-01-13T06:27:44.823Z,100789.88
2023-01-13T06:31:28.354Z,100792.80
2023-01-13T06:35:11.790Z,100791.60
2023-01-13T06:38:55.351Z,100792.80
2023-01-13T06:42:38.607Z,100793.61
2023-01-13T06:46:22.380Z,100796.87
2023-01-13T06:50:05.507Z,100797.74
2023-01-13T06:53:49.208Z,100803.93
2023-01-13T06:57:32.478Z,100803.23
2023-01-13T07:01:16.182Z,100800.52
2023-01-13T07:04:59.521Z,100800.30
2023-01-13T07:08:42.965Z,100797.20
2023-01-13T07:12:26.409Z,100797.55
2023-01-13T07:16:09.588Z,100802.19
2023-01-13T07:19:52.830Z,100803.38
2023-01-13T07:23:36.585Z,100807.33
2023-01-13T07:27:20.446Z,100801.27
2023-01-13T07:31:03.762Z,100801.13
2023-01-13T07:34:47.096Z,100803.90
2023-01-13T07:38:30.638Z,100803.73
2023-01-13T07:42:14.194Z,100801.84
2023-01-13T07:45:57.210Z,100801.48
2023-01-13T07:49:40.208Z,100803.54
2023-01-13T07:53:22.970Z,100807.48
2023-01-13T07:57:06.967Z,100802.80
2023-01-13T08:00:50.347Z,100799.65
2023-01-13T08:04:33.928Z,100797.39
2023-01-13T08:08:17.622Z,100801.84
2023-01-13T08:12:01.245Z,100802.30
2023-01-13T08:15:44.279Z,100800.17
2023-01-13T08:19:27.226Z,100803.95
2023-01-13T08:23:10.239Z,100809.98
2023-01-13T08:26:53.581Z,100812.71
2023-01-13T08:30:36.794Z,100808.69
2023-01-13T08:34:20.156Z,100808.83
2023-01-13T08:38:03.972Z,100811.71
2023-01-13T08:41:46.880Z,100812.91
2023-01-13T08:45:30.603Z,100812.02
2023-01-13T08:49:13.644Z,100812.96
2023-01-13T08:52:57.206Z,100816.55
2023-01-13T08:56:40.449Z,100820.98
2023-01-13T09:00:23.689Z,100814.84
2023-01-13T09:04:06.955Z,100809.89
2023-01-13T09:07:50.470Z,100810.30
2023-01-13T09:11:33.694Z,100810.06
2023-01-13T09:15:25.360Z,100809.63
2023-01-13T09:19:08.752Z,100801.77
2023-01-13T09:22:52.211Z,100796.20
2023-01-13T09:26:35.213Z,100796.55
2023-01-13T09:30:18.008Z,100797.59
2023-01-13T09:34:03.384Z,100793.23
2023-01-13T09:37:46.896Z,100790.61
2023-01-13T09:41:30.414Z,100789.89
2023-01-13T09:45:14.397Z,100787.04
2023-01-13T09:48:57.192Z,100785.23
2023-01-13T09:52:40.336Z,100781.96
2023-01-13T09:56:23.159Z,100775.56
2023-01-13T10:00:06.320Z,100772.95
2023-01-13T10:03:49.188Z,100773.97
2023-01-13T10:07:33.142Z,100772.63
2023-01-13T10:11:16.337Z,100771.52
2023-01-13T10:14:59.404Z,100765.98
2023-01-13T10:18:42.485Z,100759.98
2023-01-13T10:22:26.197Z,100756.31
2023-01-13T10:26:09.701Z,100758.45
2023-01-13T10:29:52.473Z,100755.62
2023-01-13T10:33:35.450Z,100748.14
2023-01-13T10:37:19.254Z,100748.45
2023-01-13T10:41:02.355Z,100746.06
2023-01-13T10:44:45.673Z,100749.16
2023-01-13T10:48:28.589Z,100746.65
2023-01-13T10:52:11.626Z,100740.41
2023-01-13T10:55:55.189Z,100739.77
2023-01-13T10:59:38.152Z,100735.41
2023-01-13T11:03:21.579Z,100731.41
2023-01-13T11:07:05.197Z,100727.05
2023-01-13T11:10:49.169Z,100717.13
2023-01-13T11:14:32.380Z,100711.39
2023-01-13T11:18:15.452Z,100709.91
2023-01-13T11:21:58.440Z,100710.68
2023-01-13T11:25:41.880Z,100705.65
2023-01-13T11:29:26.009Z,100701.00
2023-01-13T11:33:09.032Z,100696.80
2023-01-13T11:36:54.304Z,100691.65
2023-01-13T11:40:38.260Z,100686.80
2023-01-13T11:44:21.119Z,100686.90
2023-01-13T11:48:04.922Z,100683.43
2023-01-13T11:51:47.997Z,100678.90
2023-01-13T11:55:31.832Z,100674.20
2023-01-13T11:59:14.507Z,100668.84
2023-01-13T12:02:57.833Z,100673.66
2023-01-13T12:06:41.099Z,100668.86
2023-01-13T12:10:24.325Z,100660.85
2023-01-13T12:14:07.410Z,100653.30
2023-01-13T12:17:51.429Z,100653.88
2023-01-13T12:21:34.376Z,100654.52
2023-01-13T12:25:17.600Z,100649.46
2023-01-13T12:29:00.872Z,100646.05
2023-01-13T12:32:43.724Z,100643.44
2023-01-13T12:36:26.774Z,100640.86
2023-01-13T12:40:09.675Z,100636.65
2023-01-13T12:43:52.649Z,100631.66
2023-01-13T12:47:36.039Z,100630.38
2023-01-13T12:51:19.789Z,100638.58
2023-01-13T12:55:03.213Z,100638.80
2023-01-13T12:58:46.123Z,100641.27
2023-01-13T13:02:29.864Z,100643.17
2023-01-13T13:06:13.081Z,100645.94
2023-01-13T13:09:56.645Z,100648.48
2023-01-13T13:13:39.381Z,100646.38
2023-01-13T13:17:22.339Z,100645.95
2023-01-13T13:21:05.947Z,100645.83
2023-01-13T13:24:49.738Z,100648.64
2023-01-13T13:28:32.389Z,100646.79
2023-01-13T13:32:15.727Z,100643.70
2023-01-13T13:35:59.487Z,100642.13
2023-01-13T13:39:42.964Z,100643.80
2023-01-13T13:43:26.215Z,100645.77
2023-01-13T13:47:09.408Z,100648.23
2023-01-13T13:50:52.818Z,100651.22
2023-01-13T13:54:35.699Z,100648.16
2023-01-13T13:58:18.617Z,100646.94
2023-01-13T14:02:02.001Z,100649.60
2023-01-13T14:05:44.937Z,100653.81
2023-01-13T14:09:28.227Z,100654.36
2023-01-13T14:13:11.904Z,100649.77
2023-01-13T14:16:54.770Z,100644.95
2023-01-13T14:20:38.744Z,100641.35
2023-01-13T14:24:21.907Z,100642.79
2023-01-13T14:28:05.755Z,100648.87
2023-01-13T14:31:48.259Z,100648.70
2023-01-13T14:35:32.181Z,100641.23
2023-01-13T14:39:15.041Z,100632.36
2023-01-13T14:42:58.544Z,100633.54
2023-01-13T14:46:41.673Z,100640.11
2023-01-13T14:50:27.605Z,100648.02
2023-01-13T14:54:10.746Z,100640.35
2023-01-13T14:57:53.967Z,100638.70
2023-01-13T15:01:37.246Z,100636.21
2023-01-13T15:05:23.134Z,100638.73
2023-01-13T15:09:06.726Z,100639.14
2023-01-13T15:12:49.876Z,100637.11
2023-01-13T15:16:35.037Z,100635.80
2023-01-13T15:20:18.434Z,100638.45
2023-01-13T15:24:01.809Z,100640.93
2023-01-13T15:27:44.568Z,100643.23
2023-01-13T15:31:27.948Z,100647.38
2023-01-13T15:35:11.129Z,100645.49
2023-01-13T15:38:54.207Z,100649.14
2023-01-13T15:42:37.668Z,100649.97
2023-01-13T15:46:21.145Z,100652.73
2023-01-13T15:50:04.826Z,100654.80
2023-01-13T15:53:48.455Z,100655.32
2023-01-13T15:57:31.518Z,100653.08
2023-01-13T16:01:14.399Z,100654.80
2023-01-13T16:04:57.313Z,100661.71
2023-01-13T16:08:40.305Z,100664.32
2023-01-13T16:12:23.656Z,100663.46
2023-01-13T16:16:13.068Z,100664.17
2023-01-13T16:19:56.461Z,100670.80
2023-01-13T16:23:40.007Z,100672.55
2023-01-13T16:27:23.878Z,100670.45
2023-01-13T16:31:07.247Z,100671.34
2023-01-13T16:34:50.525Z,100672.21
2023-01-13T16:38:33.610Z,100679.30
2023-01-13T16:42:16.865Z,100687.08
2023-01-13T16:46:00.136Z,100685.91
2023-01-13T16:49:43.199Z,100680.58
2023-01-13T16:53:26.382Z,100679.54
2023-01-13T16:57:09.728Z,100677.63
2023-01-13T17:00:52.615Z,100672.98
2023-01-13T17:04:36.176Z,100667.77
2023-01-13T17:08:19.228Z,100669.28
2023-01-13T17:12:02.217Z,100674.63
2023-01-13T17:15:45.359Z,100677.89
2023-01-13T17:19:28.488Z,100673.92
2023-01-13T17:23:12.176Z,100667.15
2023-01-13T17:26:56.005Z,100664.01
2023-01-13T17:30:41.083Z,100660.40
2023-01-13T17:34:25.545Z,100657.48
2023-01-13T17:38:09.307Z,100656.94
2023-01-13T17:41:52.457Z,100658.65
2023-01-13T17:45:35.775Z,100661.58
2023-01-13T17:49:19.225Z,100663.48
2023-01-13T17:53:02.666Z,100665.55
2023-01-13T17:56:45.332Z,100664.73
2023-01-13T18:00:28.654Z,100657.85
2023-01-13T18:04:11.524Z,100655.77
2023-01-13T18:07:54.756Z,100660.27
2023-01-13T18:11:38.243Z,100662.36
2023-01-13T18:15:21.775Z,100658.05
2023-01-13T18:19:04.804Z,100656.52
2023-01-13T18:22:47.838Z,100666.06
2023-01-13T18:26:31.190Z,100666.48
2023-01-13T18:30:14.742Z,100662.71
2023-01-13T18:33:57.896Z,100668.81
2023-01-13T18:37:41.232Z,100668.20
2023-01-13T18:41:24.290Z,100665.30
2023-01-13T18:45:07.091Z,100664.30
2023-01-13T18:48:50.042Z,100669.85
2023-01-13T18:52:32.872Z,100669.30
2023-01-13T18:56:16.059Z,100669.13
2023-01-13T18:59:59.082Z,100672.57
2023-01-13T19:03:42.497Z,100672.19
2023-01-13T19:07:26.145Z,100671.00
2023-01-13T19:11:09.903Z,100676.34
2023-01-13T19:14:52.941Z,100678.26
2023-01-13T19:18:36.626Z,100678.95
2023-01-13T19:22:19.849Z,100677.43
2023-01-13T19:26:02.898Z,100673.86
2023-01-13T19:29:52.180Z,100677.34
2023-01-13T19:33:36.374Z,100678.42
2023-01-13T19:37:19.936Z,100679.70
2023-01-13T19:41:03.782Z,100680.25
2023-01-13T19:44:46.624Z,100683.73
2023-01-13T19:48:29.895Z,100686.51
2023-01-13T19:52:13.357Z,100685.30
2023-01-13T19:55:56.396Z,100688.92
2023-01-13T19:59:39.499Z,100694.80
2023-01-13T20:03:23.005Z,100698.46
2023-01-13T20:07:06.536Z,100700.92
2023-01-13T20:10:49.685Z,100704.23
2023-01-13T20:14:33.057Z,100703.89
2023-01-13T20:18:16.798Z,100704.05
2023-01-13T20:21:59.824Z,100705.79
2023-01-13T20:25:43.218Z,100703.03
2023-01-13T20:29:26.403Z,100703.91
2023-01-13T20:33:10.335Z,100701.00
2023-01-13T20:36:53.129Z,100700.18
2023-01-13T20:40:36.470Z,100700.06
2023-01-13T20:44:20.124Z,100701.46
2023-01-13T20:48:02.772Z,100701.86
2023-01-13T20:51:46.442Z,100706.71
2023-01-13T20:55:29.636Z,100701.73
2023-01-13T20:59:12.878Z,100707.82
2023-01-13T21:02:56.169Z,100715.79
2023-01-13T21:06:39.547Z,100712.87
2023-01-13T21:10:22.701Z,100717.90
2023-01-13T21:14:06.075Z,100722.73
2023-01-13T21:17:49.733Z,100725.85
2023-01-13T21:21:33.009Z,100727.77
2023-01-13T21:25:15.869Z,100728.64
2023-01-13T21:28:58.854Z,100726.23
2023-01-13T21:32:41.988Z,100726.08
2023-01-13T21:36:25.442Z,100725.41
2023-01-13T21:40:09.124Z,100724.56
2023-01-13T21:43:53.259Z,100720.59
2023-01-13T21:47:36.906Z,100718.19
2023-01-13T21:51:20.171Z,100715.95
2023-01-13T21:55:03.779Z,100716.81
2023-01-13T21:58:46.952Z,100715.44
2023-01-13T22:02:30.236Z,100714.92
2023-01-13T22:06:13.367Z,100711.83
2023-01-13T22:09:56.807Z,100709.93
2023-01-13T22:13:41.288Z,100711.31
2023-01-13T22:17:24.571Z,100714.08
2023-01-13T22:21:07.842Z,100715.83
2023-01-13T22:24:51.310Z,100712.92
2023-01-13T22:28:34.075Z,100710.86
2023-01-13T22:32:17.750Z,100706.39
2023-01-13T22:36:01.664Z,100709.32
2023-01-13T22:39:44.830Z,100709.31
2023-01-13T22:43:28.132Z,100708.78
2023-01-13T22:47:11.209Z,100717.58
2023-01-13T22:50:54.223Z,100718.79
2023-01-13T22:54:37.875Z,100724.12
2023-01-13T22:58:21.027Z,100720.16
2023-01-13T23:02:04.413Z,100725.33
2023-01-13T23:05:48.440Z,100727.92
2023-01-13T23:09:31.939Z,100732.90
2023-01-13T23:13:15.187Z,100739.11
2023-01-13T23:16:58.601Z,100742.02
2023-01-13T23:20:41.807Z,100746.84
2023-01-13T23:24:25.593Z,100745.80
2023-01-13T23:28:08.979Z,100742.70
2023-01-13T23:31:52.441Z,100743.38
2023-01-13T23:35:35.934Z,100738.02
2023-01-13T23:39:19.685Z,100738.52
2023-01-13T23:43:03.571Z,100736.79
2023-01-13T23:46:46.806Z,100737.98
2023-01-13T23:50:30.778Z,100736.23
2023-01-13T23:54:13.883Z,100737.09
2023-01-13T23:57:56.933Z,100736.38
